createdAt,value
2023-04-14T00:00:47.137Z,99.90
2023-04-14T00:03:15.149Z,99.90
2023-04-14T00:05:43.132Z,99.90
2023-04-14T00:08:10.988Z,99.90
2023-04-14T00:10:38.887Z,99.90
2023-04-14T00:13:08.145Z,99.90
2023-04-14T00:15:36.186Z,99.90
2023-04-14T00:18:04.137Z,99.90
2023-04-14T00:20:32.073Z,99.90
2023-04-14T00:22:59.907Z,99.90
2023-04-14T00:25:27.781Z,99.90
2023-04-14T00:27:55.748Z,99.90
2023-04-14T00:30:25.007Z,99.90
2023-04-14T00:32:53.000Z,99.90
2023-04-14T00:35:20.949Z,99.90
2023-04-14T00:37:48.782Z,99.90
2023-04-14T00:40:16.773Z,99.90
2023-04-14T00:42:45.231Z,99.90
2023-04-14T00:45:13.700Z,99.90
2023-04-14T00:47:46.924Z,99.90
2023-04-14T00:50:16.499Z,99.90
2023-04-14T00:52:47.065Z,99.90
2023-04-14T00:55:16.457Z,99.90
2023-04-14T00:57:44.985Z,99.90
2023-04-14T01:00:14.081Z,99.90
2023-04-14T01:02:43.603Z,99.90
2023-04-14T01:05:11.789Z,99.90
2023-04-14T01:07:40.476Z,99.90
2023-04-14T01:10:09.232Z,99.90
2023-04-14T01:12:56.745Z,99.90
2023-04-14T01:15:31.439Z,99.90
2023-04-14T01:18:08.510Z,99.90
2023-04-14T01:20:41.775Z,99.90
2023-04-14T01:23:12.745Z,99.90
2023-04-14T01:26:08.236Z,99.90
2023-04-14T01:28:49.514Z,99.90
2023-04-14T01:31:26.683Z,99.90
2023-04-14T01:33:59.953Z,99.90
2023-04-14T01:36:35.455Z,99.90
2023-04-14T01:39:09.214Z,99.90
2023-04-14T01:41:40.383Z,99.90
2023-04-14T01:44:10.636Z,99.90
2023-04-14T01:46:42.422Z,99.90
2023-04-14T01:49:11.497Z,99.90
2023-04-14T01:51:41.642Z,99.90
2023-04-14T01:54:11.002Z,99.90
2023-04-14T01:56:40.924Z,99.90
2023-04-14T01:59:10.888Z,99.90
2023-04-14T02:01:41.872Z,99.90
2023-04-14T02:04:11.033Z,99.90
2023-04-14T02:06:40.018Z,99.90
2023-04-14T02:09:12.398Z,99.90
2023-04-14T02:11:42.289Z,99.90
2023-04-14T02:14:11.280Z,99.90
2023-04-14T02:16:41.749Z,99.90
2023-04-14T02:19:10.807Z,99.90
2023-04-14T02:21:40.319Z,99.90
2023-04-14T02:24:08.785Z,99.90
2023-04-14T02:26:42.479Z,99.90
2023-04-14T02:29:14.450Z,99.90
2023-04-14T02:31:47.202Z,99.90
2023-04-14T02:34:18.307Z,99.90
2023-04-14T02:36:53.323Z,99.90
2023-04-14T02:39:28.763Z,99.90
2023-04-14T02:42:01.149Z,99.90
2023-04-14T02:44:33.330Z,99.90
2023-04-14T02:47:07.413Z,99.90
2023-04-14T02:49:38.972Z,99.90
2023-04-14T02:52:08.166Z,99.90
2023-04-14T02:54:38.748Z,99.90
2023-04-14T02:57:07.233Z,99.90
2023-04-14T02:59:36.388Z,99.90
2023-04-14T03:02:06.479Z,99.90
2023-04-14T03:04:38.487Z,99.90
2023-04-14T03:07:08.604Z,99.90
2023-04-14T03:09:37.197Z,99.90
2023-04-14T03:12:06.756Z,99.90
2023-04-14T03:14:35.768Z,99.90
2023-04-14T03:17:05.996Z,99.90
2023-04-14T03:19:34.897Z,99.90
2023-04-14T03:22:04.492Z,99.90
2023-04-14T03:24:35.196Z,99.90
2023-04-14T03:27:08.292Z,99.90
2023-04-14T03:29:39.103Z,99.90
2023-04-14T03:32:09.548Z,99.90
2023-04-14T03:34:42.425Z,99.90
2023-04-14T03:37:11.238Z,99.90
2023-04-14T03:39:40.475Z,99.90
2023-04-14T03:42:09.029Z,99.90
2023-04-14T03:44:39.882Z,99.90
2023-04-14T03:47:10.597Z,99.90
2023-04-14T03:49:40.437Z,99.90
2023-04-14T03:52:11.592Z,99.90
2023-04-14T03:54:42.614Z,99.90
2023-04-14T03:57:12.125Z,99.90
2023-04-14T03:59:41.025Z,99.90
2023-04-14T04:02:11.911Z,99.90
2023-04-14T04:04:40.955Z,99.90
2023-04-14T04:07:12.975Z,99.90
2023-04-14T04:09:42.787Z,99.90
2023-04-14T04:12:12.605Z,99.90
2023-04-14T04:14:41.407Z,99.90
2023-04-14T04:17:13.442Z,99.90
2023-04-14T04:19:44.516Z,99.90
2023-04-14T04:22:15.549Z,99.90
2023-04-14T04:24:45.789Z,99.90
2023-04-14T04:27:26.596Z,99.90
2023-04-14T04:29:55.720Z,99.90
2023-04-14T04:32:25.198Z,99.90
2023-04-14T04:34:54.478Z,99.90
2023-04-14T04:37:22.942Z,99.90
2023-04-14T04:39:50.833Z,99.90
2023-04-14T04:42:18.806Z,99.90
2023-04-14T04:44:46.705Z,99.90
2023-04-14T04:47:14.913Z,99.90
2023-04-14T04:49:44.369Z,99.90
2023-04-14T04:52:12.244Z,99.90
2023-04-14T04:54:40.325Z,99.90
2023-04-14T04:57:08.230Z,99.90
2023-04-14T04:59:37.969Z,99.90
2023-04-14T05:02:06.366Z,99.90
2023-04-14T05:04:34.399Z,99.90
2023-04-14T05:07:04.069Z,99.90
2023-04-14T05:09:31.952Z,99.90
2023-04-14T05:11:59.839Z,99.90
2023-04-14T05:14:27.947Z,99.90
2023-04-14T05:16:55.838Z,99.90
2023-04-14T05:19:23.713Z,99.90
2023-04-14T05:21:51.576Z,99.90
2023-04-14T05:24:20.755Z,99.90
2023-04-14T05:27:11.622Z,99.90
2023-04-14T05:29:36.643Z,99.90
2023-04-14T05:32:04.638Z,99.90
2023-04-14T05:34:32.496Z,99.90
2023-04-14T05:37:00.486Z,99.90
2023-04-14T05:39:29.769Z,99.90
2023-04-14T05:41:59.574Z,99.90
2023-04-14T05:44:27.520Z,99.90
2023-04-14T05:46:55.479Z,99.90
2023-04-14T05:49:23.411Z,99.90
2023-04-14T05:51:51.326Z,99.90
2023-04-14T05:54:19.195Z,99.90
2023-04-14T05:56:48.473Z,99.90
2023-04-14T05:59:17.331Z,99.90
2023-04-14T06:01:45.530Z,99.90
2023-04-14T06:04:13.575Z,99.90
2023-04-14T06:06:41.710Z,99.90
2023-04-14T06:09:09.746Z,99.90
2023-04-14T06:11:38.186Z,99.90
2023-04-14T06:14:07.551Z,99.90
2023-04-14T06:16:35.573Z,20.00
2023-04-14T06:19:03.655Z,1.00
2023-04-14T06:21:32.489Z,1.00
2023-04-14T06:24:00.438Z,1.00
2023-04-14T06:26:46.774Z,1.00
2023-04-14T06:29:35.171Z,1.00
2023-04-14T06:32:10.375Z,1.00
2023-04-14T06:34:38.435Z,1.00
2023-04-14T06:37:06.721Z,1.00
2023-04-14T06:39:39.309Z,1.00
2023-04-14T06:42:16.092Z,1.00
2023-04-14T06:45:14.176Z,1.00
2023-04-14T06:48:01.241Z,1.00
2023-04-14T06:50:29.178Z,91.20
2023-04-14T06:55:59.733Z,1.00
2023-04-14T06:58:54.200Z,1.00
2023-04-14T07:01:41.633Z,80.20
2023-04-14T07:04:24.110Z,61.80
2023-04-14T07:07:14.578Z,76.60
2023-04-14T07:09:51.813Z,82.70
2023-04-14T07:12:27.355Z,48.30
2023-04-14T07:15:02.925Z,41.40
2023-04-14T07:17:32.241Z,37.20
2023-04-14T07:20:20.201Z,32.20
2023-04-14T07:22:58.393Z,55.20
2023-04-14T07:25:32.871Z,31.20
2023-04-14T07:30:57.263Z,46.10
2023-04-14T07:33:30.368Z,78.50
2023-04-14T07:36:03.407Z,59.10
2023-04-14T07:38:32.355Z,1.00
2023-04-14T07:41:01.316Z,1.00
2023-04-14T07:43:34.754Z,1.00
2023-04-14T07:46:04.314Z,1.00
2023-04-14T07:48:34.584Z,1.00
2023-04-14T07:51:03.105Z,1.00
2023-04-14T07:53:31.595Z,1.00
2023-04-14T07:56:00.067Z,72.70
2023-04-14T07:58:29.551Z,66.30
2023-04-14T08:00:58.236Z,57.30
2023-04-14T08:03:26.504Z,90.30
2023-04-14T08:05:56.373Z,76.50
2023-04-14T08:08:24.366Z,70.60
2023-04-14T08:10:52.243Z,84.50
2023-04-14T08:13:20.241Z,93.30
2023-04-14T08:15:48.188Z,95.00
2023-04-14T08:18:16.293Z,97.00
2023-04-14T08:20:44.240Z,97.80
2023-04-14T08:23:13.463Z,97.50
2023-04-14T08:25:42.265Z,98.70
2023-04-14T08:28:10.123Z,98.90
2023-04-14T08:30:38.001Z,99.90
2023-04-14T08:33:06.014Z,99.90
2023-04-14T08:35:38.624Z,99.90
2023-04-14T08:38:09.307Z,99.90
2023-04-14T08:40:39.960Z,99.90
2023-04-14T08:43:08.403Z,99.90
2023-04-14T08:45:37.304Z,99.90
2023-04-14T08:48:06.555Z,99.90
2023-04-14T08:50:38.326Z,99.90
2023-04-14T08:53:10.747Z,99.90
2023-04-14T08:55:42.221Z,99.90
2023-04-14T08:58:11.428Z,99.90
2023-04-14T09:00:40.311Z,99.90
2023-04-14T09:03:09.511Z,99.90
2023-04-14T09:05:38.069Z,99.90
2023-04-14T09:08:06.372Z,99.90
2023-04-14T09:10:35.635Z,99.90
2023-04-14T09:13:09.723Z,99.90
2023-04-14T09:15:38.242Z,99.90
2023-04-14T09:18:06.491Z,99.90
2023-04-14T09:20:41.110Z,99.90
2023-04-14T09:23:10.444Z,99.90
2023-04-14T09:25:40.084Z,98.10
2023-04-14T09:28:09.537Z,99.90
2023-04-14T09:30:37.897Z,95.90
2023-04-14T09:33:07.278Z,98.00
2023-04-14T09:35:45.969Z,98.20
2023-04-14T09:38:14.153Z,99.90
2023-04-14T09:40:44.222Z,98.00
2023-04-14T09:43:26.904Z,99.80
2023-04-14T09:45:55.926Z,99.90
2023-04-14T09:48:24.299Z,99.80
2023-04-14T09:51:00.177Z,98.50
2023-04-14T09:53:29.670Z,97.70
2023-04-14T09:55:59.681Z,97.70
2023-04-14T09:58:32.669Z,96.90
2023-04-14T10:01:04.550Z,97.20
2023-04-14T10:03:38.019Z,97.40
2023-04-14T10:06:09.722Z,99.80
2023-04-14T10:08:42.715Z,98.50
2023-04-14T10:11:21.304Z,97.30
2023-04-14T10:13:51.932Z,96.70
2023-04-14T10:16:20.021Z,97.80
2023-04-14T10:18:48.016Z,96.50
2023-04-14T10:21:17.377Z,94.50
2023-04-14T10:23:46.251Z,97.00
2023-04-14T10:26:15.734Z,96.30
2023-04-14T10:28:46.328Z,95.70
2023-04-14T10:31:20.059Z,99.10
2023-04-14T10:33:48.579Z,97.50
2023-04-14T10:36:24.566Z,97.40
2023-04-14T10:39:00.885Z,96.90
2023-04-14T10:41:29.308Z,98.40
2023-04-14T10:43:57.227Z,96.50
2023-04-14T10:46:26.653Z,97.50
2023-04-14T10:48:55.249Z,99.00
2023-04-14T10:51:35.997Z,97.30
2023-04-14T10:54:04.753Z,95.50
2023-04-14T10:56:32.741Z,97.10
2023-04-14T10:59:00.760Z,93.80
2023-04-14T11:01:32.859Z,94.20
2023-04-14T11:04:18.536Z,96.10
2023-04-14T11:06:52.322Z,92.20
2023-04-14T11:09:37.970Z,95.40
2023-04-14T11:12:23.238Z,92.60
2023-04-14T11:14:55.624Z,80.70
2023-04-14T11:17:25.017Z,78.70
2023-04-14T11:19:55.212Z,74.50
2023-04-14T11:22:39.353Z,78.40
2023-04-14T11:25:08.601Z,68.10
2023-04-14T11:27:36.525Z,73.40
2023-04-14T11:30:06.978Z,75.20
2023-04-14T11:32:48.909Z,73.40
2023-04-14T11:35:17.064Z,72.30
2023-04-14T11:37:45.938Z,70.80
2023-04-14T11:40:15.424Z,69.40
2023-04-14T11:42:46.431Z,75.60
2023-04-14T11:45:16.401Z,68.10
2023-04-14T11:47:58.324Z,58.30
2023-04-14T11:50:27.440Z,52.80
2023-04-14T11:52:59.283Z,51.20
2023-04-14T11:55:28.079Z,53.30
2023-04-14T11:57:56.919Z,49.00
2023-04-14T12:00:25.431Z,46.80
2023-04-14T12:02:55.227Z,56.50
2023-04-14T12:05:30.118Z,58.40
2023-04-14T12:08:00.165Z,55.20
2023-04-14T12:10:28.687Z,54.70
2023-04-14T12:13:04.159Z,50.90
2023-04-14T12:15:34.496Z,51.00
2023-04-14T12:18:05.006Z,51.90
2023-04-14T12:20:42.913Z,50.40
2023-04-14T12:23:14.449Z,48.80
2023-04-14T12:25:42.610Z,46.20
2023-04-14T12:28:10.915Z,55.10
2023-04-14T12:30:38.966Z,56.80
2023-04-14T12:33:13.037Z,56.60
2023-04-14T12:35:41.404Z,58.50
2023-04-14T12:38:13.631Z,52.00
2023-04-14T12:40:43.796Z,54.80
2023-04-14T12:43:12.005Z,40.20
2023-04-14T12:45:43.858Z,45.00
2023-04-14T12:48:13.661Z,57.90
2023-04-14T12:50:41.692Z,42.50
2023-04-14T12:53:26.014Z,46.60
2023-04-14T12:56:06.869Z,57.80
2023-04-14T12:58:36.316Z,56.50
2023-04-14T13:01:05.469Z,61.00
2023-04-14T13:03:49.954Z,63.50
2023-04-14T13:06:19.064Z,63.20
2023-04-14T13:08:48.247Z,58.80
2023-04-14T13:11:16.975Z,53.70
2023-04-14T13:13:45.394Z,53.50
2023-04-14T13:16:16.687Z,51.40
2023-04-14T13:18:47.624Z,51.50
2023-04-14T13:21:15.831Z,59.40
2023-04-14T13:23:43.925Z,56.60
2023-04-14T13:26:12.059Z,59.50
2023-04-14T13:28:40.161Z,57.40
2023-04-14T13:31:08.233Z,59.10
2023-04-14T13:33:36.407Z,57.50
2023-04-14T13:36:05.950Z,62.40
2023-04-14T13:38:34.038Z,60.70
2023-04-14T13:41:01.942Z,61.80
2023-04-14T13:43:30.522Z,66.80
2023-04-14T13:45:58.973Z,59.50
2023-04-14T13:48:27.215Z,66.80
2023-04-14T13:50:55.834Z,59.40
2023-04-14T13:53:25.298Z,59.40
2023-04-14T13:55:53.231Z,53.80
2023-04-14T13:58:21.308Z,57.00
2023-04-14T14:00:49.227Z,53.10
2023-04-14T14:03:17.482Z,61.40
2023-04-14T14:05:45.483Z,57.10
2023-04-14T14:08:16.182Z,65.40
2023-04-14T14:10:46.768Z,52.80
2023-04-14T14:13:16.481Z,57.00
2023-04-14T14:15:45.230Z,56.80
2023-04-14T14:18:14.312Z,59.10
2023-04-14T14:20:42.261Z,61.60
2023-04-14T14:23:11.971Z,58.10
2023-04-14T14:25:40.761Z,57.80
2023-04-14T14:28:10.094Z,54.50
2023-04-14T14:30:37.964Z,57.70
2023-04-14T14:33:05.833Z,64.40
2023-04-14T14:35:33.775Z,60.10
2023-04-14T14:38:01.633Z,55.30
2023-04-14T14:40:30.436Z,62.20
2023-04-14T14:42:58.434Z,58.70
2023-04-14T14:45:31.059Z,59.30
2023-04-14T14:48:01.418Z,60.50
2023-04-14T14:50:29.328Z,60.10
2023-04-14T14:52:57.143Z,64.80
2023-04-14T14:55:25.191Z,64.10
2023-04-14T14:57:53.052Z,61.20
2023-04-14T15:00:21.305Z,64.60
2023-04-14T15:02:50.747Z,62.00
2023-04-14T15:05:19.008Z,64.90
2023-04-14T15:07:46.874Z,61.80
2023-04-14T15:10:16.185Z,64.50
2023-04-14T15:12:44.232Z,63.30
2023-04-14T15:15:12.914Z,67.60
2023-04-14T15:17:40.893Z,64.20
2023-04-14T15:20:11.481Z,60.40
2023-04-14T15:22:39.432Z,65.60
2023-04-14T15:25:09.122Z,59.70
2023-04-14T15:27:37.164Z,64.30
2023-04-14T15:30:05.796Z,51.80
2023-04-14T15:32:33.963Z,59.00
2023-04-14T15:35:01.872Z,55.20
2023-04-14T15:37:31.111Z,51.90
2023-04-14T15:39:59.075Z,42.50
2023-04-14T15:42:26.975Z,45.50
2023-04-14T15:44:54.883Z,34.60
2023-04-14T15:47:22.812Z,44.30
2023-04-14T15:50:02.264Z,41.00
2023-04-14T15:52:39.378Z,46.50
2023-04-14T15:55:08.876Z,37.60
2023-04-14T15:57:37.054Z,20.60
2023-04-14T16:00:07.334Z,42.10
2023-04-14T16:02:35.819Z,29.20
2023-04-14T16:05:05.068Z,28.80
2023-04-14T16:07:33.363Z,29.20
2023-04-14T16:10:04.935Z,25.10
2023-04-14T16:12:35.081Z,34.10
2023-04-14T16:15:03.407Z,22.00
2023-04-14T16:17:31.601Z,28.20
2023-04-14T16:19:59.506Z,31.80
2023-04-14T16:22:27.535Z,40.10
2023-04-14T16:24:55.499Z,28.30
2023-04-14T16:27:24.815Z,39.70
2023-04-14T16:29:52.800Z,34.00
2023-04-14T16:32:20.668Z,33.30
2023-04-14T16:34:48.712Z,33.30
2023-04-14T16:37:16.765Z,29.40
2023-04-14T16:39:44.680Z,30.90
2023-04-14T16:42:12.579Z,16.40
2023-04-14T16:44:41.963Z,6.60
2023-04-14T16:47:10.051Z,1.00
2023-04-14T16:49:37.908Z,12.90
2023-04-14T16:52:05.842Z,20.50
2023-04-14T16:54:33.824Z,1.00
2023-04-14T16:57:01.640Z,1.00
2023-04-14T16:59:30.065Z,1.00
2023-04-14T17:01:59.441Z,9.00
2023-04-14T17:04:27.756Z,9.70
2023-04-14T17:06:56.599Z,10.70
2023-04-14T17:09:25.053Z,1.00
2023-04-14T17:11:53.036Z,1.00
2023-04-14T17:14:22.629Z,1.00
2023-04-14T17:16:50.560Z,19.30
2023-04-14T17:19:19.822Z,1.00
2023-04-14T17:21:49.589Z,1.00
2023-04-14T17:24:17.476Z,4.00
2023-04-14T17:26:45.743Z,1.00
2023-04-14T17:29:13.661Z,1.00
2023-04-14T17:31:42.270Z,1.00
2023-04-14T17:34:11.723Z,1.00
2023-04-14T17:36:41.119Z,1.00
2023-04-14T17:39:10.274Z,1.00
2023-04-14T17:41:38.543Z,1.00
2023-04-14T17:44:06.501Z,1.00
2023-04-14T17:46:34.417Z,1.00
2023-04-14T17:49:03.543Z,1.00
2023-04-14T17:51:32.334Z,1.00
2023-04-14T17:54:02.020Z,1.00
2023-04-14T17:56:30.665Z,1.00
2023-04-14T17:58:58.782Z,1.00
2023-04-14T18:01:26.823Z,1.00
2023-04-14T18:03:55.251Z,1.00
2023-04-14T18:06:23.374Z,20.30
2023-04-14T18:08:51.510Z,20.30
2023-04-14T18:11:20.776Z,9.70
2023-04-14T18:13:48.737Z,5.30
2023-04-14T18:16:18.408Z,1.00
2023-04-14T18:18:46.374Z,1.00
2023-04-14T18:21:14.295Z,1.00
2023-04-14T18:23:42.684Z,1.00
2023-04-14T18:28:42.809Z,1.00
2023-04-14T18:31:13.673Z,1.00
2023-04-14T18:33:41.837Z,1.00
2023-04-14T18:36:10.276Z,1.00
2023-04-14T18:38:38.184Z,1.00
2023-04-14T18:41:06.774Z,1.00
2023-04-14T18:43:34.917Z,1.00
2023-04-14T18:46:04.360Z,1.50
2023-04-14T18:48:32.290Z,1.00
2023-04-14T18:51:04.275Z,1.00
2023-04-14T18:53:32.528Z,1.00
2023-04-14T18:56:00.481Z,1.00
2023-04-14T18:58:29.332Z,1.00
2023-04-14T19:00:57.517Z,1.00
2023-04-14T19:03:27.248Z,1.00
2023-04-14T19:05:55.680Z,1.00
2023-04-14T19:08:23.610Z,1.00
2023-04-14T19:10:51.724Z,1.00
2023-04-14T19:13:19.730Z,1.00
2023-04-14T19:15:47.641Z,1.00
2023-04-14T19:18:16.762Z,1.00
2023-04-14T19:20:47.693Z,1.00
2023-04-14T19:23:15.698Z,1.00
2023-04-14T19:25:43.571Z,1.00
2023-04-14T19:28:16.561Z,1.00
2023-04-14T19:30:45.671Z,1.00
2023-04-14T19:33:13.858Z,1.00
2023-04-14T19:35:44.108Z,1.00
2023-04-14T19:38:13.698Z,1.00
2023-04-14T19:40:48.004Z,1.00
2023-04-14T19:43:16.180Z,1.00
2023-04-14T19:45:51.434Z,1.00
2023-04-14T19:48:23.474Z,1.00
2023-04-14T19:50:54.121Z,1.00
2023-04-14T19:53:24.770Z,1.00
2023-04-14T19:55:55.687Z,1.00
2023-04-14T19:58:24.630Z,1.00
2023-04-14T20:00:55.731Z,1.00
2023-04-14T20:03:24.266Z,4.60
2023-04-14T20:05:54.669Z,1.00
2023-04-14T20:08:24.269Z,1.00
2023-04-14T20:10:54.143Z,1.00
2023-04-14T20:13:23.128Z,1.00
2023-04-14T20:15:53.877Z,1.00
2023-04-14T20:18:23.252Z,1.00
2023-04-14T20:20:52.580Z,1.00
2023-04-14T20:23:20.724Z,1.00
2023-04-14T20:25:51.115Z,1.00
2023-04-14T20:28:19.896Z,1.00
2023-04-14T20:30:49.352Z,1.00
2023-04-14T20:33:18.668Z,1.00
2023-04-14T20:35:46.581Z,1.00
2023-04-14T20:38:15.560Z,1.00
2023-04-14T20:40:43.568Z,1.00
2023-04-14T20:43:12.898Z,1.00
2023-04-14T20:45:41.026Z,1.00
2023-04-14T20:48:09.115Z,1.00
2023-04-14T20:50:37.239Z,1.00
2023-04-14T20:53:05.200Z,1.00
2023-04-14T20:55:33.438Z,1.00
2023-04-14T20:58:01.303Z,1.00
2023-04-14T21:00:32.492Z,1.00
2023-04-14T21:03:03.490Z,1.00
2023-04-14T21:05:31.646Z,1.00
2023-04-14T21:07:59.513Z,1.00
2023-04-14T21:10:27.468Z,1.00
2023-04-14T21:15:24.854Z,3.30
2023-04-14T21:15:51.493Z,7.40
2023-04-14T21:18:19.926Z,11.30
2023-04-14T21:20:47.811Z,6.40
2023-04-14T21:23:16.021Z,29.70
2023-04-14T21:25:43.912Z,58.80
2023-04-14T21:28:12.116Z,59.00
2023-04-14T21:30:40.024Z,63.10
2023-04-14T21:33:09.383Z,82.40
2023-04-14T21:35:37.577Z,81.30
2023-04-14T21:38:05.578Z,75.90
2023-04-14T21:40:33.695Z,92.40
2023-04-14T21:43:01.580Z,99.90
2023-04-14T21:45:29.530Z,99.90
2023-04-14T21:47:57.760Z,94.80
2023-04-14T21:50:27.098Z,99.90
2023-04-14T21:52:55.249Z,94.60
2023-04-14T21:55:23.152Z,99.90
2023-04-14T21:57:52.100Z,99.90
2023-04-14T22:00:20.373Z,99.90
2023-04-14T22:02:48.650Z,99.90
2023-04-14T22:05:17.029Z,99.90
2023-04-14T22:07:46.509Z,99.90
2023-04-14T22:10:14.571Z,99.90
2023-04-14T22:12:43.933Z,99.90
2023-04-14T22:15:11.927Z,99.90
2023-04-14T22:17:39.971Z,99.90
2023-04-14T22:20:09.498Z,99.90
2023-04-14T22:22:37.482Z,99.90
2023-04-14T22:25:07.751Z,99.90
2023-04-14T22:27:36.035Z,99.90
2023-04-14T22:30:05.209Z,99.90
2023-04-14T22:32:33.190Z,99.90
2023-04-14T22:35:01.117Z,99.90
2023-04-14T22:37:29.006Z,99.90
2023-04-14T22:39:56.958Z,99.90
2023-04-14T22:42:26.404Z,99.90
2023-04-14T22:44:54.356Z,99.90
2023-04-14T22:47:22.355Z,99.90
2023-04-14T22:49:50.719Z,99.90
2023-04-14T22:52:18.748Z,99.90
2023-04-14T22:54:46.851Z,99.90
2023-04-14T22:57:14.706Z,99.90
2023-04-14T22:59:43.979Z,99.90
2023-04-14T23:02:12.679Z,99.90
2023-04-14T23:04:40.772Z,99.90
2023-04-14T23:07:08.716Z,99.90
2023-04-14T23:09:36.645Z,99.90
2023-04-14T23:12:04.766Z,99.90
2023-04-14T23:14:33.142Z,99.90
2023-04-14T23:17:02.886Z,99.90
2023-04-14T23:19:32.921Z,99.90
2023-04-14T23:22:01.829Z,99.90
2023-04-14T23:24:29.744Z,99.90
2023-04-14T23:26:57.702Z,99.90
2023-04-14T23:29:25.673Z,99.90
2023-04-14T23:31:53.738Z,99.90
2023-04-14T23:34:23.083Z,99.90
2023-04-14T23:36:50.935Z,99.90
2023-04-14T23:39:19.369Z,99.90
2023-04-14T23:41:47.603Z,99.90
2023-04-14T23:44:15.622Z,99.90
2023-04-14T23:46:43.551Z,99.90
2023-04-14T23:49:24.487Z,99.90
2023-04-14T23:52:00.960Z,99.90
2023-04-14T23:54:30.711Z,99.90
2023-04-14T23:56:58.727Z,99.90
2023-04-14T23:59:27.055Z,99.90
